Terminal Aerodrome Forecast
Issued by NWS

Home | Current Version | Previous Version | Text Only | Print | Product List | Glossary On
Versions: 1 2 3 4 5 6 7 8 9 10 11 12 13 14 15 16
000
FTUS43 KJKL 241700
TAFSME
TAF
KSME 241721Z 2418/2518 18005KT P6SM SCT110 SCT300
     FM250300 17006KT P6SM SCT050 BKN150
     FM250900 20008KT 5SM -SHRA BR VCTS BKN020CB OVC100
     FM251200 23012G21KT P6SM FEW010 BKN025 BKN120=

USA.gov is the U.S. government's official web portal to all federal, state and local government web resources and services.